createdAt,value
2022-12-27T00:01:52.399Z,84.93
2022-12-27T00:04:18.796Z,84.78
2022-12-27T00:06:45.195Z,84.47
2022-12-27T00:09:11.620Z,85.36
2022-12-27T00:11:38.751Z,85.02
2022-12-27T00:14:06.814Z,85.14
2022-12-27T00:16:34.236Z,85.74
2022-12-27T00:19:02.079Z,86.63
2022-12-27T00:21:29.401Z,87.31
2022-12-27T00:23:57.601Z,87.50
2022-12-27T00:26:26.580Z,87.34
2022-12-27T00:28:53.630Z,87.48
2022-12-27T00:31:21.740Z,87.34
2022-12-27T00:33:51.060Z,87.03
2022-12-27T00:36:20.141Z,87.67
2022-12-27T00:38:47.318Z,87.80
2022-12-27T00:41:14.522Z,87.31
2022-12-27T00:43:40.932Z,88.38
2022-12-27T00:46:08.384Z,88.86
2022-12-27T00:48:37.957Z,89.80
2022-12-27T00:51:15.378Z,90.11
2022-12-27T00:53:42.527Z,89.65
2022-12-27T00:56:15.384Z,90.37
2022-12-27T00:58:43.259Z,91.68
2022-12-27T01:01:12.408Z,91.77
2022-12-27T01:03:39.482Z,91.43
2022-12-27T01:06:14.054Z,91.79
2022-12-27T01:08:41.133Z,92.11
2022-12-27T01:11:08.761Z,92.93
2022-12-27T01:13:36.260Z,93.60
2022-12-27T01:16:26.740Z,94.81
2022-12-27T01:18:53.910Z,94.56
2022-12-27T01:21:22.192Z,93.81
2022-12-27T01:23:49.383Z,94.47
2022-12-27T01:26:18.479Z,94.43
2022-12-27T01:28:45.679Z,94.41
2022-12-27T01:31:15.660Z,95.22
2022-12-27T01:33:42.847Z,94.94
2022-12-27T01:36:16.099Z,95.24
2022-12-27T01:38:43.258Z,95.27
2022-12-27T01:41:36.496Z,94.69
2022-12-27T01:44:49.095Z,94.78
2022-12-27T01:47:37.188Z,95.57
2022-12-27T01:50:10.188Z,95.91
2022-12-27T01:52:50.281Z,95.80
2022-12-27T01:55:27.272Z,96.72
2022-12-27T01:57:57.773Z,97.57
2022-12-27T02:00:24.330Z,97.06
2022-12-27T02:02:51.475Z,97.05
2022-12-27T02:05:19.724Z,96.84
2022-12-27T02:08:17.188Z,97.79
2022-12-27T02:10:43.897Z,97.97
2022-12-27T02:13:10.429Z,98.62
2022-12-27T02:15:36.868Z,97.84
2022-12-27T02:18:03.570Z,98.29
2022-12-27T02:20:41.020Z,98.10
2022-12-27T02:23:47.479Z,99.05
2022-12-27T02:26:32.434Z,98.68
2022-12-27T02:29:17.700Z,98.85
2022-12-27T02:31:59.475Z,99.17
2022-12-27T02:34:35.066Z,98.89
2022-12-27T02:37:08.298Z,99.21
2022-12-27T02:54:11.591Z,99.54
2022-12-27T02:57:09.326Z,99.81
2022-12-27T03:00:04.465Z,99.32
2022-12-27T03:02:58.982Z,99.44
2022-12-27T03:06:37.040Z,99.66
2022-12-27T03:09:35.558Z,100.00
2022-12-27T03:12:28.419Z,99.45
2022-12-27T03:15:20.855Z,100.00
2022-12-27T03:18:02.017Z,100.00
2022-12-27T03:20:48.233Z,100.00
2022-12-27T03:23:34.614Z,99.76
2022-12-27T03:26:03.852Z,100.00
2022-12-27T03:28:50.744Z,99.71
2022-12-27T03:31:50.276Z,99.66
2022-12-27T03:34:39.768Z,99.40
2022-12-27T03:37:31.586Z,99.69
2022-12-27T03:40:27.395Z,99.80
2022-12-27T03:43:13.640Z,99.19
2022-12-27T03:46:07.734Z,99.39
2022-12-27T03:48:44.602Z,99.71
2022-12-27T03:51:13.199Z,99.60
2022-12-27T03:53:43.665Z,100.00
2022-12-27T03:56:11.281Z,100.00
2022-12-27T03:58:37.711Z,100.00
2022-12-27T04:01:04.173Z,100.00
2022-12-27T04:03:30.626Z,100.00
2022-12-27T04:05:57.844Z,100.00
2022-12-27T04:08:42.689Z,99.44
2022-12-27T04:11:27.765Z,99.70
2022-12-27T04:14:12.637Z,99.32
2022-12-27T04:16:57.877Z,99.23
2022-12-27T04:19:42.951Z,98.80
2022-12-27T04:22:28.110Z,99.16
2022-12-27T04:25:13.015Z,99.08
2022-12-27T04:27:57.999Z,97.94
2022-12-27T04:30:43.163Z,98.37
2022-12-27T04:33:28.388Z,98.19
2022-12-27T04:35:54.818Z,97.60
2022-12-27T04:38:21.233Z,97.91
2022-12-27T04:41:06.287Z,97.01
2022-12-27T04:43:51.661Z,97.08
2022-12-27T04:46:41.702Z,97.33
2022-12-27T04:49:56.043Z,96.97
2022-12-27T04:52:42.798Z,96.81
2022-12-27T04:55:21.067Z,96.59
2022-12-27T04:57:47.914Z,96.69
2022-12-27T05:00:33.950Z,96.37
2022-12-27T05:03:03.093Z,96.31
2022-12-27T05:05:29.797Z,96.16
2022-12-27T05:08:16.690Z,95.75
2022-12-27T05:11:01.879Z,95.85
2022-12-27T05:13:46.854Z,96.12
2022-12-27T05:16:14.194Z,95.39
2022-12-27T05:18:40.654Z,95.82
2022-12-27T05:21:07.145Z,94.91
2022-12-27T05:23:53.384Z,95.89
2022-12-27T05:26:25.203Z,95.29
2022-12-27T05:28:53.786Z,95.66
2022-12-27T05:31:21.320Z,94.91
2022-12-27T05:33:48.827Z,95.28
2022-12-27T05:36:15.239Z,94.60
2022-12-27T05:38:41.691Z,94.88
2022-12-27T05:41:08.111Z,94.18
2022-12-27T05:43:35.368Z,94.92
2022-12-27T05:46:14.274Z,94.43
2022-12-27T05:48:41.808Z,94.10
2022-12-27T05:51:27.815Z,93.91
2022-12-27T05:53:54.208Z,94.80
2022-12-27T05:56:22.191Z,93.94
2022-12-27T05:58:48.699Z,93.79
2022-12-27T06:01:17.874Z,94.19
2022-12-27T06:03:45.327Z,94.42
2022-12-27T06:06:13.005Z,94.70
2022-12-27T06:08:40.101Z,94.49
2022-12-27T06:11:12.665Z,94.87
2022-12-27T06:13:40.044Z,94.42
2022-12-27T06:16:08.482Z,93.84
2022-12-27T06:18:36.620Z,94.17
2022-12-27T06:21:06.184Z,94.56
2022-12-27T06:23:34.133Z,94.22
2022-12-27T06:26:05.434Z,94.12
2022-12-27T06:28:32.169Z,94.49
2022-12-27T06:31:02.263Z,94.22
2022-12-27T06:33:29.062Z,94.76
2022-12-27T06:35:55.710Z,94.89
2022-12-27T06:38:22.392Z,94.93
2022-12-27T06:40:48.959Z,94.76
2022-12-27T06:43:15.481Z,94.32
2022-12-27T06:45:41.907Z,94.54
2022-12-27T06:48:08.355Z,94.60
2022-12-27T06:50:35.935Z,94.63
2022-12-27T06:53:02.346Z,94.89
2022-12-27T06:55:28.740Z,94.67
2022-12-27T06:57:55.156Z,94.31
2022-12-27T07:00:21.609Z,94.64
2022-12-27T07:02:48.783Z,94.73
2022-12-27T07:05:15.382Z,95.40
2022-12-27T07:07:41.832Z,95.76
2022-12-27T07:10:08.533Z,95.54
2022-12-27T07:12:36.917Z,95.05
2022-12-27T07:15:05.498Z,95.73
2022-12-27T07:17:32.232Z,95.59
2022-12-27T07:19:58.626Z,95.58
2022-12-27T07:22:25.059Z,95.87
2022-12-27T07:24:51.520Z,95.63
2022-12-27T07:27:17.935Z,95.62
2022-12-27T07:29:45.863Z,95.25
2022-12-27T07:32:12.493Z,95.72
2022-12-27T07:34:38.914Z,95.61
2022-12-27T07:37:05.498Z,95.87
2022-12-27T07:39:31.887Z,95.17
2022-12-27T07:42:01.987Z,95.17
2022-12-27T07:44:37.084Z,95.19
2022-12-27T07:47:03.569Z,94.83
2022-12-27T07:49:29.972Z,95.15
2022-12-27T07:51:56.566Z,95.29
2022-12-27T07:54:22.972Z,94.37
2022-12-27T07:56:49.382Z,94.70
2022-12-27T07:59:17.463Z,94.85
2022-12-27T08:02:02.596Z,94.37
2022-12-27T08:04:29.183Z,94.38
2022-12-27T08:07:15.860Z,94.44
2022-12-27T08:09:44.017Z,94.39
2022-12-27T08:12:11.353Z,94.85
2022-12-27T08:14:37.763Z,94.55
2022-12-27T08:17:07.620Z,94.81
2022-12-27T08:19:34.480Z,94.94
2022-12-27T08:22:01.220Z,94.20
2022-12-27T08:24:27.725Z,94.60
2022-12-27T08:26:54.099Z,94.14
2022-12-27T08:29:20.554Z,94.44
2022-12-27T08:31:46.970Z,94.47
2022-12-27T08:34:13.409Z,94.26
2022-12-27T08:36:56.433Z,93.99
2022-12-27T08:39:24.245Z,94.07
2022-12-27T08:41:52.925Z,93.79
2022-12-27T08:44:19.315Z,94.24
2022-12-27T08:46:45.716Z,93.89
2022-12-27T08:49:12.103Z,93.83
2022-12-27T08:51:41.108Z,93.59
2022-12-27T08:54:08.402Z,93.83
2022-12-27T08:56:34.814Z,93.31
2022-12-27T08:59:01.419Z,93.53
2022-12-27T09:01:28.425Z,93.13
2022-12-27T09:03:55.264Z,93.95
2022-12-27T09:06:24.129Z,93.58
2022-12-27T09:08:51.752Z,93.21
2022-12-27T09:11:20.698Z,93.46
2022-12-27T09:13:47.296Z,94.14
2022-12-27T09:16:19.528Z,93.25
2022-12-27T09:18:48.958Z,92.68
2022-12-27T09:21:19.561Z,93.26
2022-12-27T09:23:47.029Z,92.65
2022-12-27T09:26:24.964Z,91.85
2022-12-27T09:28:51.803Z,92.33
2022-12-27T09:31:19.459Z,91.78
2022-12-27T09:33:46.119Z,92.41
2022-12-27T09:36:17.686Z,92.10
2022-12-27T09:38:45.013Z,92.21
2022-12-27T09:44:36.789Z,92.98
2022-12-27T09:47:12.950Z,93.26
2022-12-27T09:49:43.040Z,94.69
2022-12-27T09:52:17.711Z,94.16
2022-12-27T09:54:47.108Z,94.00
2022-12-27T09:57:23.175Z,95.14
2022-12-27T09:59:52.987Z,94.21
2022-12-27T10:02:25.161Z,94.76
2022-12-27T10:05:19.252Z,95.56
2022-12-27T10:07:48.370Z,95.06
2022-12-27T10:10:42.931Z,95.30
2022-12-27T10:13:36.280Z,95.09
2022-12-27T10:16:31.229Z,95.60
2022-12-27T10:19:21.599Z,95.35
2022-12-27T10:21:57.023Z,95.59
2022-12-27T10:24:45.594Z,95.72
2022-12-27T10:27:15.260Z,96.27
2022-12-27T10:29:42.352Z,96.36
2022-12-27T10:32:12.503Z,96.36
2022-12-27T10:34:38.883Z,96.27
2022-12-27T10:37:05.347Z,95.34
2022-12-27T10:39:35.696Z,96.15
2022-12-27T10:42:20.299Z,96.36
2022-12-27T10:44:49.606Z,96.06
2022-12-27T10:47:16.572Z,96.44
2022-12-27T10:50:00.928Z,96.83
2022-12-27T10:52:31.710Z,96.49
2022-12-27T10:54:58.112Z,96.04
2022-12-27T10:57:28.374Z,96.30
2022-12-27T11:00:18.371Z,95.95
2022-12-27T11:02:56.365Z,96.12
2022-12-27T11:05:28.702Z,94.63
2022-12-27T11:07:55.508Z,94.38
2022-12-27T11:10:24.974Z,93.87
2022-12-27T11:13:21.248Z,93.42
2022-12-27T11:16:02.367Z,93.46
2022-12-27T11:18:29.193Z,94.32
2022-12-27T11:20:59.133Z,94.13
2022-12-27T11:23:34.152Z,93.77
2022-12-27T11:26:04.334Z,93.56
2022-12-27T11:28:39.201Z,94.31
2022-12-27T11:31:12.775Z,93.91
2022-12-27T11:33:44.716Z,94.26
2022-12-27T11:36:12.645Z,93.13
2022-12-27T11:38:43.014Z,92.92
2022-12-27T11:41:30.867Z,91.76
2022-12-27T11:44:22.085Z,91.42
2022-12-27T11:47:15.517Z,91.48
2022-12-27T11:49:57.802Z,91.36
2022-12-27T11:52:44.823Z,91.13
2022-12-27T11:55:51.122Z,91.24
2022-12-27T11:58:46.893Z,90.67
2022-12-27T12:01:39.357Z,90.58
2022-12-27T12:04:47.159Z,90.69
2022-12-27T12:07:32.335Z,91.55
2022-12-27T12:10:31.344Z,90.89
2022-12-27T12:13:15.906Z,91.45
2022-12-27T12:15:42.825Z,91.75
2022-12-27T12:18:21.220Z,91.36
2022-12-27T12:21:20.160Z,91.53
2022-12-27T12:24:12.489Z,90.88
2022-12-27T12:26:59.123Z,91.10
2022-12-27T12:29:53.263Z,91.09
2022-12-27T12:32:58.280Z,91.15
2022-12-27T12:35:40.278Z,91.71
2022-12-27T12:38:21.157Z,91.66
2022-12-27T12:41:03.166Z,90.52
2022-12-27T12:44:07.922Z,89.42
2022-12-27T12:46:47.436Z,89.42
2022-12-27T12:49:33.577Z,89.86
2022-12-27T12:52:12.159Z,89.85
2022-12-27T12:55:15.267Z,89.11
2022-12-27T12:58:10.600Z,88.83
2022-12-27T13:00:43.293Z,88.76
2022-12-27T13:03:25.008Z,88.68
2022-12-27T13:06:06.817Z,87.96
2022-12-27T13:08:56.032Z,88.52
2022-12-27T13:11:37.459Z,86.88
2022-12-27T13:14:27.298Z,87.14
2022-12-27T13:17:19.813Z,87.01
2022-12-27T13:20:00.330Z,86.07
2022-12-27T13:23:04.375Z,86.25
2022-12-27T13:25:50.077Z,86.53
2022-12-27T13:28:37.842Z,86.45
2022-12-27T13:31:38.404Z,86.47
2022-12-27T13:34:25.852Z,86.89
2022-12-27T13:37:12.711Z,86.78
2022-12-27T13:40:21.907Z,86.11
2022-12-27T13:43:17.518Z,86.35
2022-12-27T13:45:54.010Z,86.46
2022-12-27T13:48:51.590Z,85.73
2022-12-27T13:51:47.733Z,86.94
2022-12-27T13:54:33.822Z,86.40
2022-12-27T13:57:26.171Z,86.51
2022-12-27T14:00:09.520Z,87.31
2022-12-27T14:03:06.217Z,86.91
2022-12-27T14:05:57.366Z,87.34
2022-12-27T14:08:49.781Z,87.38
2022-12-27T14:11:53.538Z,87.06
2022-12-27T14:14:21.589Z,86.98
2022-12-27T14:17:12.639Z,86.65
2022-12-27T14:19:54.181Z,86.99
2022-12-27T14:22:37.114Z,86.67
2022-12-27T14:25:59.324Z,86.06
2022-12-27T14:29:01.161Z,86.81
2022-12-27T14:31:48.558Z,86.68
2022-12-27T14:34:46.150Z,86.33
2022-12-27T14:37:39.949Z,86.31
2022-12-27T14:40:26.663Z,86.73
2022-12-27T14:43:34.718Z,87.80
2022-12-27T14:46:01.107Z,87.38
2022-12-27T14:48:46.056Z,87.13
2022-12-27T14:51:59.979Z,86.56
2022-12-27T14:55:04.577Z,87.36
2022-12-27T14:57:33.814Z,86.97
2022-12-27T15:00:19.400Z,87.61
2022-12-27T15:03:04.643Z,87.50
2022-12-27T15:05:43.406Z,88.03
2022-12-27T15:08:30.795Z,86.95
2022-12-27T15:11:15.599Z,87.41
2022-12-27T15:13:57.019Z,87.97
2022-12-27T15:16:35.516Z,88.27
2022-12-27T15:19:40.302Z,88.45
2022-12-27T15:22:32.468Z,88.52
2022-12-27T15:25:26.827Z,88.33
2022-12-27T15:28:17.643Z,89.20
2022-12-27T15:31:03.735Z,89.40
2022-12-27T15:33:41.279Z,90.00
2022-12-27T15:36:16.711Z,90.83
2022-12-27T15:38:54.587Z,90.79
2022-12-27T15:41:36.383Z,91.53
2022-12-27T15:44:24.277Z,91.47
2022-12-27T15:47:22.964Z,91.17
2022-12-27T15:50:28.535Z,92.35
2022-12-27T15:53:00.723Z,92.34
2022-12-27T15:56:05.149Z,93.58
2022-12-27T15:58:32.709Z,92.54
2022-12-27T16:01:25.697Z,93.75
2022-12-27T16:03:53.684Z,93.27
2022-12-27T16:06:35.254Z,94.51
2022-12-27T16:09:22.930Z,95.17
2022-12-27T16:12:05.884Z,94.40
2022-12-27T16:14:36.348Z,95.31
2022-12-27T16:17:24.623Z,95.19
2022-12-27T16:20:02.479Z,95.92
2022-12-27T16:22:36.443Z,95.77
2022-12-27T16:25:33.868Z,96.36
2022-12-27T16:28:24.534Z,97.39
2022-12-27T16:30:53.985Z,96.54
2022-12-27T16:33:26.369Z,97.08
2022-12-27T16:36:05.180Z,98.01
2022-12-27T16:38:34.044Z,97.41
2022-12-27T16:41:14.509Z,97.47
2022-12-27T16:44:02.369Z,97.63
2022-12-27T16:46:47.966Z,97.91
2022-12-27T16:49:49.027Z,97.21
2022-12-27T16:52:39.943Z,97.78
2022-12-27T16:55:40.555Z,97.65
2022-12-27T16:58:23.280Z,97.44
2022-12-27T17:00:55.383Z,97.85
2022-12-27T17:03:21.731Z,98.06
2022-12-27T17:06:21.743Z,98.50
2022-12-27T17:08:36.501Z,98.45
2022-12-27T17:11:24.389Z,98.61
2022-12-27T17:14:03.821Z,98.49
2022-12-27T17:16:41.701Z,98.69
2022-12-27T17:19:18.636Z,98.44
2022-12-27T17:21:46.099Z,99.07
2022-12-27T17:24:17.414Z,98.77
2022-12-27T17:27:25.852Z,99.68
2022-12-27T17:30:15.350Z,99.91
2022-12-27T17:33:19.550Z,100.00
2022-12-27T17:36:30.577Z,100.00
2022-12-27T17:39:21.866Z,100.00
2022-12-27T17:42:16.128Z,100.00
2022-12-27T17:45:21.999Z,100.00
2022-12-27T17:48:25.365Z,100.00
2022-12-27T17:50:59.791Z,100.00
2022-12-27T17:53:45.003Z,100.00
2022-12-27T17:56:30.048Z,100.00
2022-12-27T17:59:26.997Z,100.00
2022-12-27T18:01:57.223Z,100.00
2022-12-27T18:04:28.520Z,100.00
2022-12-27T18:06:57.319Z,99.87
2022-12-27T18:09:35.102Z,100.00
2022-12-27T18:12:04.747Z,100.00
2022-12-27T18:14:33.826Z,100.00
2022-12-27T18:17:00.686Z,100.00
2022-12-27T18:19:31.968Z,100.00
2022-12-27T18:22:01.203Z,99.94
2022-12-27T18:24:31.037Z,100.00
2022-12-27T18:27:06.656Z,99.76
2022-12-27T18:29:34.197Z,99.90
2022-12-27T18:32:05.612Z,99.86
2022-12-27T18:34:39.716Z,98.96
2022-12-27T18:37:10.887Z,99.03
2022-12-27T18:39:46.788Z,99.05
2022-12-27T18:42:18.257Z,98.71
2022-12-27T18:44:49.827Z,98.55
2022-12-27T18:47:27.052Z,98.68
2022-12-27T18:50:01.667Z,98.56
2022-12-27T18:52:39.237Z,97.96
2022-12-27T18:55:16.617Z,97.49
2022-12-27T18:57:43.801Z,98.14
2022-12-27T19:00:21.681Z,97.52
2022-12-27T19:02:49.606Z,97.64
2022-12-27T19:05:18.816Z,97.79
2022-12-27T19:07:51.181Z,97.97
2022-12-27T19:10:20.401Z,97.62
2022-12-27T19:12:47.560Z,98.25
2022-12-27T19:15:24.853Z,97.87
2022-12-27T19:17:55.222Z,98.25
2022-12-27T19:20:27.348Z,97.74
2022-12-27T19:22:57.114Z,97.63
2022-12-27T19:26:02.119Z,97.93
2022-12-27T19:28:30.947Z,97.59
2022-12-27T19:31:17.487Z,98.35
2022-12-27T19:33:58.656Z,97.73
2022-12-27T19:36:26.949Z,97.62
2022-12-27T19:38:54.045Z,98.03
2022-12-27T19:41:20.465Z,98.56
2022-12-27T19:43:47.308Z,97.79
2022-12-27T19:46:14.625Z,97.88
2022-12-27T19:48:41.593Z,98.42
2022-12-27T19:51:18.729Z,98.85
2022-12-27T19:53:57.546Z,98.99
2022-12-27T19:56:24.922Z,97.69
2022-12-27T19:58:51.523Z,97.76
2022-12-27T20:01:17.996Z,97.90
2022-12-27T20:03:44.621Z,97.71
2022-12-27T20:06:20.040Z,98.59
2022-12-27T20:08:51.725Z,98.63
2022-12-27T20:11:22.102Z,99.09
2022-12-27T20:13:49.740Z,98.85
2022-12-27T20:16:18.693Z,98.06
2022-12-27T20:18:45.778Z,97.91
2022-12-27T20:21:14.158Z,97.56
2022-12-27T20:23:40.603Z,98.60
2022-12-27T20:26:07.118Z,98.82
2022-12-27T20:28:34.363Z,98.99
2022-12-27T20:31:15.535Z,99.01
2022-12-27T20:33:41.919Z,99.58
2022-12-27T20:36:09.324Z,98.73
2022-12-27T20:38:38.590Z,99.33
2022-12-27T20:41:10.319Z,99.30
2022-12-27T20:43:37.030Z,100.00
2022-12-27T20:46:10.623Z,100.00
2022-12-27T20:48:38.959Z,100.00
2022-12-27T20:51:09.941Z,99.81
2022-12-27T20:53:36.683Z,100.00
2022-12-27T20:56:04.951Z,100.00
2022-12-27T20:58:32.537Z,100.00
2022-12-27T21:01:09.635Z,100.00
2022-12-27T21:03:37.728Z,100.00
2022-12-27T21:06:08.671Z,100.00
2022-12-27T21:08:40.415Z,100.00
2022-12-27T21:11:14.052Z,100.00
2022-12-27T21:13:41.700Z,100.00
2022-12-27T21:16:13.105Z,100.00
2022-12-27T21:18:40.168Z,100.00
2022-12-27T21:21:09.556Z,100.00
2022-12-27T21:23:37.403Z,100.00
2022-12-27T21:26:15.986Z,100.00
2022-12-27T21:28:45.092Z,100.00
2022-12-27T21:31:12.725Z,100.00
2022-12-27T21:33:39.658Z,100.00
2022-12-27T21:36:10.621Z,100.00
2022-12-27T21:38:37.048Z,100.00
2022-12-27T21:41:08.357Z,100.00
2022-12-27T21:43:34.752Z,100.00
2022-12-27T21:46:08.431Z,100.00
2022-12-27T21:48:35.980Z,100.00
2022-12-27T21:51:12.678Z,100.00
2022-12-27T21:53:40.065Z,100.00
2022-12-27T21:56:07.154Z,100.00
2022-12-27T21:58:35.460Z,100.00
2022-12-27T22:01:16.245Z,100.00
2022-12-27T22:03:45.295Z,100.00
2022-12-27T22:06:28.649Z,100.00
2022-12-27T22:08:58.156Z,100.00
2022-12-27T22:11:26.011Z,100.00
2022-12-27T22:13:52.716Z,100.00
2022-12-27T22:16:21.934Z,100.00
2022-12-27T22:18:48.896Z,100.00
2022-12-27T22:21:18.465Z,100.00
2022-12-27T22:23:47.294Z,100.00
2022-12-27T22:26:18.553Z,100.00
2022-12-27T22:28:46.549Z,100.00
2022-12-27T22:31:15.589Z,100.00
2022-12-27T22:33:43.409Z,100.00
2022-12-27T22:36:21.446Z,100.00
2022-12-27T22:38:55.070Z,100.00
2022-12-27T22:41:27.251Z,100.00
2022-12-27T22:43:56.235Z,100.00
2022-12-27T22:46:23.875Z,100.00
2022-12-27T22:48:52.486Z,100.00
2022-12-27T22:51:24.908Z,100.00
2022-12-27T22:53:51.580Z,100.00
2022-12-27T22:56:19.440Z,100.00
2022-12-27T22:58:46.484Z,100.00
2022-12-27T23:01:15.476Z,100.00
2022-12-27T23:03:42.783Z,100.00
2022-12-27T23:06:12.105Z,100.00
2022-12-27T23:08:39.661Z,100.00
2022-12-27T23:11:14.830Z,100.00
2022-12-27T23:13:41.387Z,100.00
2022-12-27T23:16:08.471Z,100.00
2022-12-27T23:18:36.652Z,100.00
2022-12-27T23:21:20.325Z,100.00
2022-12-27T23:23:49.549Z,100.00
2022-12-27T23:26:17.619Z,100.00
2022-12-27T23:28:45.739Z,100.00
2022-12-27T23:31:13.454Z,100.00
2022-12-27T23:33:41.648Z,100.00
2022-12-27T23:36:08.491Z,100.00
2022-12-27T23:38:35.114Z,100.00
2022-12-27T23:41:04.224Z,100.00
2022-12-27T23:43:51.741Z,100.00
2022-12-27T23:46:25.642Z,100.00
2022-12-27T23:48:52.295Z,100.00
2022-12-27T23:51:19.391Z,100.00
2022-12-27T23:53:48.608Z,100.00
2022-12-27T23:56:23.974Z,100.00
2022-12-27T23:58:53.162Z,100.00
